sensor_id;sensor_type;location;lat;lon;timestamp;P1;durP1;ratioP1;P2;durP2;ratioP2
49147;SDS011;41980;45.550;12.070;2022-07-15T00:01:38;2.42;;;1.30;;
49147;SDS011;41980;45.550;12.070;2022-07-15T00:07:40;3.38;;;1.60;;
49147;SDS011;41980;45.550;12.070;2022-07-15T00:13:42;1.75;;;0.93;;
49147;SDS011;41980;45.550;12.070;2022-07-15T00:19:44;2.03;;;1.13;;
49147;SDS011;41980;45.550;12.070;2022-07-15T00:25:47;1.73;;;0.80;;
49147;SDS011;41980;45.550;12.070;2022-07-15T00:31:49;2.50;;;0.93;;
49147;SDS011;41980;45.550;12.070;2022-07-15T00:37:51;1.65;;;0.90;;
49147;SDS011;41980;45.550;12.070;2022-07-15T00:43:53;1.60;;;0.90;;
49147;SDS011;41980;45.550;12.070;2022-07-15T00:49:55;1.85;;;1.00;;
49147;SDS011;41980;45.550;12.070;2022-07-15T00:55:59;2.22;;;0.90;;
49147;SDS011;41980;45.550;12.070;2022-07-15T01:02:03;1.88;;;1.00;;
49147;SDS011;41980;45.550;12.070;2022-07-15T01:08:06;3.22;;;1.30;;
49147;SDS011;41980;45.550;12.070;2022-07-15T01:14:08;3.05;;;1.20;;
49147;SDS011;41980;45.550;12.070;2022-07-15T01:20:11;2.42;;;1.10;;
49147;SDS011;41980;45.550;12.070;2022-07-15T01:26:29;2.78;;;1.17;;
49147;SDS011;41980;45.550;12.070;2022-07-15T01:32:32;1.92;;;1.10;;
49147;SDS011;41980;45.550;12.070;2022-07-15T01:38:34;2.33;;;1.10;;
49147;SDS011;41980;45.550;12.070;2022-07-15T01:44:38;1.80;;;0.93;;
49147;SDS011;41980;45.550;12.070;2022-07-15T01:50:40;3.63;;;1.55;;
49147;SDS011;41980;45.550;12.070;2022-07-15T01:56:46;2.00;;;1.10;;
49147;SDS011;41980;45.550;12.070;2022-07-15T02:02:48;2.08;;;1.00;;
49147;SDS011;41980;45.550;12.070;2022-07-15T02:08:54;2.05;;;1.20;;
49147;SDS011;41980;45.550;12.070;2022-07-15T02:14:59;2.58;;;1.00;;
49147;SDS011;41980;45.550;12.070;2022-07-15T02:21:12;3.42;;;1.00;;
49147;SDS011;41980;45.550;12.070;2022-07-15T02:27:14;3.17;;;1.15;;
49147;SDS011;41980;45.550;12.070;2022-07-15T02:33:16;1.80;;;0.90;;
49147;SDS011;41980;45.550;12.070;2022-07-15T02:39:18;2.00;;;1.10;;
49147;SDS011;41980;45.550;12.070;2022-07-15T02:45:23;2.05;;;1.00;;
49147;SDS011;41980;45.550;12.070;2022-07-15T02:51:29;2.42;;;1.25;;
49147;SDS011;41980;45.550;12.070;2022-07-15T02:57:31;2.53;;;1.20;;
49147;SDS011;41980;45.550;12.070;2022-07-15T03:03:35;2.60;;;1.23;;
49147;SDS011;41980;45.550;12.070;2022-07-15T03:09:39;2.55;;;1.35;;
49147;SDS011;41980;45.550;12.070;2022-07-15T03:15:43;2.20;;;1.05;;
49147;SDS011;41980;45.550;12.070;2022-07-15T03:21:45;3.47;;;1.20;;
49147;SDS011;41980;45.550;12.070;2022-07-15T03:27:47;2.70;;;1.02;;
49147;SDS011;41980;45.550;12.070;2022-07-15T03:33:49;3.20;;;1.30;;
49147;SDS011;41980;45.550;12.070;2022-07-15T03:39:53;2.60;;;1.30;;
49147;SDS011;41980;45.550;12.070;2022-07-15T03:45:55;2.75;;;1.30;;
49147;SDS011;41980;45.550;12.070;2022-07-15T03:51:57;3.88;;;1.10;;
49147;SDS011;41980;45.550;12.070;2022-07-15T03:58:01;2.20;;;1.33;;
49147;SDS011;41980;45.550;12.070;2022-07-15T04:04:03;2.85;;;1.60;;
49147;SDS011;41980;45.550;12.070;2022-07-15T04:10:05;2.65;;;1.48;;
49147;SDS011;41980;45.550;12.070;2022-07-15T04:16:08;3.55;;;1.80;;
49147;SDS011;41980;45.550;12.070;2022-07-15T04:22:13;2.03;;;1.30;;
49147;SDS011;41980;45.550;12.070;2022-07-15T04:28:20;3.13;;;1.77;;
49147;SDS011;41980;45.550;12.070;2022-07-15T04:34:23;2.17;;;1.38;;
49147;SDS011;41980;45.550;12.070;2022-07-15T04:40:25;2.67;;;1.40;;
49147;SDS011;41980;45.550;12.070;2022-07-15T04:46:28;2.72;;;1.58;;
49147;SDS011;41980;45.550;12.070;2022-07-15T04:52:47;8.15;;;2.60;;
49147;SDS011;41980;45.550;12.070;2022-07-15T04:58:51;3.47;;;1.85;;
49147;SDS011;41980;45.550;12.070;2022-07-15T05:04:53;5.50;;;3.10;;
49147;SDS011;41980;45.550;12.070;2022-07-15T05:10:58;3.63;;;2.40;;
49147;SDS011;41980;45.550;12.070;2022-07-15T05:17:00;2.60;;;1.35;;
49147;SDS011;41980;45.550;12.070;2022-07-15T05:23:03;3.58;;;1.40;;
49147;SDS011;41980;45.550;12.070;2022-07-15T05:29:14;3.20;;;1.40;;
49147;SDS011;41980;45.550;12.070;2022-07-15T05:35:17;3.55;;;1.30;;
49147;SDS011;41980;45.550;12.070;2022-07-15T05:41:19;2.60;;;1.33;;
49147;SDS011;41980;45.550;12.070;2022-07-15T05:47:21;3.55;;;1.10;;
49147;SDS011;41980;45.550;12.070;2022-07-15T05:53:24;1.90;;;1.20;;
49147;SDS011;41980;45.550;12.070;2022-07-15T05:59:26;2.42;;;1.20;;
49147;SDS011;41980;45.550;12.070;2022-07-15T06:05:29;2.05;;;1.00;;
49147;SDS011;41980;45.550;12.070;2022-07-15T06:11:36;2.53;;;1.05;;
49147;SDS011;41980;45.550;12.070;2022-07-15T06:17:40;2.33;;;1.10;;
49147;SDS011;41980;45.550;12.070;2022-07-15T06:23:43;1.88;;;1.00;;
49147;SDS011;41980;45.550;12.070;2022-07-15T06:29:46;4.00;;;0.90;;
49147;SDS011;41980;45.550;12.070;2022-07-15T06:35:49;2.10;;;0.85;;
49147;SDS011;41980;45.550;12.070;2022-07-15T06:41:52;2.13;;;0.90;;
49147;SDS011;41980;45.550;12.070;2022-07-15T06:47:54;1.98;;;0.63;;
49147;SDS011;41980;45.550;12.070;2022-07-15T06:53:57;2.10;;;0.90;;
49147;SDS011;41980;45.550;12.070;2022-07-15T07:00:03;4.15;;;1.73;;
49147;SDS011;41980;45.550;12.070;2022-07-15T07:06:09;3.92;;;0.88;;
49147;SDS011;41980;45.550;12.070;2022-07-15T07:12:12;1.75;;;0.70;;
49147;SDS011;41980;45.550;12.070;2022-07-15T07:18:14;2.58;;;0.80;;
49147;SDS011;41980;45.550;12.070;2022-07-15T07:24:16;2.83;;;1.15;;
49147;SDS011;41980;45.550;12.070;2022-07-15T07:30:19;1.58;;;0.55;;
49147;SDS011;41980;45.550;12.070;2022-07-15T07:36:21;1.90;;;0.70;;
49147;SDS011;41980;45.550;12.070;2022-07-15T07:42:23;3.30;;;0.90;;
49147;SDS011;41980;45.550;12.070;2022-07-15T07:48:25;2.17;;;0.80;;
49147;SDS011;41980;45.550;12.070;2022-07-15T07:54:28;1.85;;;0.70;;
49147;SDS011;41980;45.550;12.070;2022-07-15T08:00:31;1.10;;;0.40;;
49147;SDS011;41980;45.550;12.070;2022-07-15T08:06:34;1.00;;;0.50;;
49147;SDS011;41980;45.550;12.070;2022-07-15T08:12:38;0.90;;;0.43;;
49147;SDS011;41980;45.550;12.070;2022-07-15T08:18:41;1.08;;;0.40;;
49147;SDS011;41980;45.550;12.070;2022-07-15T08:24:44;2.30;;;0.60;;
49147;SDS011;41980;45.550;12.070;2022-07-15T08:30:46;1.40;;;0.50;;
49147;SDS011;41980;45.550;12.070;2022-07-15T08:36:50;1.00;;;0.40;;
49147;SDS011;41980;45.550;12.070;2022-07-15T08:42:52;1.35;;;0.50;;
49147;SDS011;41980;45.550;12.070;2022-07-15T08:48:55;1.23;;;0.50;;
49147;SDS011;41980;45.550;12.070;2022-07-15T08:55:03;2.38;;;0.80;;
49147;SDS011;41980;45.550;12.070;2022-07-15T09:01:06;1.65;;;0.60;;
49147;SDS011;41980;45.550;12.070;2022-07-15T09:07:08;1.92;;;0.63;;
49147;SDS011;41980;45.550;12.070;2022-07-15T09:13:11;3.28;;;0.90;;
49147;SDS011;41980;45.550;12.070;2022-07-15T09:19:26;2.42;;;0.88;;
49147;SDS011;41980;45.550;12.070;2022-07-15T09:25:30;1.40;;;0.60;;
49147;SDS011;41980;45.550;12.070;2022-07-15T09:31:36;2.22;;;0.88;;
49147;SDS011;41980;45.550;12.070;2022-07-15T09:37:54;3.05;;;0.80;;
49147;SDS011;41980;45.550;12.070;2022-07-15T09:44:01;2.72;;;0.90;;
49147;SDS011;41980;45.550;12.070;2022-07-15T09:50:07;3.25;;;0.90;;
49147;SDS011;41980;45.550;12.070;2022-07-15T09:56:11;2.55;;;0.98;;
49147;SDS011;41980;45.550;12.070;2022-07-15T10:02:16;1.88;;;1.00;;
49147;SDS011;41980;45.550;12.070;2022-07-15T10:08:19;2.72;;;1.38;;
49147;SDS011;41980;45.550;12.070;2022-07-15T10:26:42;3.03;;;0.98;;
49147;SDS011;41980;45.550;12.070;2022-07-15T10:39:03;1.70;;;0.90;;
49147;SDS011;41980;45.550;12.070;2022-07-15T10:45:06;2.92;;;0.98;;
49147;SDS011;41980;45.550;12.070;2022-07-15T10:51:09;3.08;;;1.20;;
49147;SDS011;41980;45.550;12.070;2022-07-15T10:57:12;2.63;;;1.17;;
49147;SDS011;41980;45.550;12.070;2022-07-15T11:03:18;5.90;;;1.70;;
49147;SDS011;41980;45.550;12.070;2022-07-15T11:15:29;5.00;;;1.90;;
49147;SDS011;41980;45.550;12.070;2022-07-15T11:21:32;4.47;;;1.15;;
49147;SDS011;41980;45.550;12.070;2022-07-15T11:27:34;2.10;;;1.10;;
49147;SDS011;41980;45.550;12.070;2022-07-15T11:33:36;2.85;;;0.90;;
49147;SDS011;41980;45.550;12.070;2022-07-15T11:39:39;1.67;;;1.05;;
49147;SDS011;41980;45.550;12.070;2022-07-15T11:45:41;1.90;;;1.00;;
49147;SDS011;41980;45.550;12.070;2022-07-15T11:51:43;4.30;;;1.20;;
49147;SDS011;41980;45.550;12.070;2022-07-15T11:57:46;1.95;;;0.95;;
49147;SDS011;41980;45.550;12.070;2022-07-15T12:03:49;1.85;;;0.93;;
49147;SDS011;41980;45.550;12.070;2022-07-15T12:09:53;2.47;;;0.90;;
49147;SDS011;41980;45.550;12.070;2022-07-15T12:15:55;2.38;;;0.82;;
49147;SDS011;41980;45.550;12.070;2022-07-15T12:21:58;2.28;;;1.00;;
49147;SDS011;41980;45.550;12.070;2022-07-15T12:28:06;2.40;;;1.08;;
49147;SDS011;41980;45.550;12.070;2022-07-15T12:34:08;1.88;;;0.90;;
49147;SDS011;41980;45.550;12.070;2022-07-15T12:40:11;2.40;;;1.05;;
49147;SDS011;41980;45.550;12.070;2022-07-15T12:46:15;2.00;;;0.90;;
49147;SDS011;41980;45.550;12.070;2022-07-15T12:52:20;2.47;;;0.95;;
49147;SDS011;41980;45.550;12.070;2022-07-15T12:58:24;2.53;;;1.00;;
49147;SDS011;41980;45.550;12.070;2022-07-15T13:04:28;1.98;;;1.00;;
49147;SDS011;41980;45.550;12.070;2022-07-15T13:10:31;1.73;;;0.93;;
49147;SDS011;41980;45.550;12.070;2022-07-15T13:16:33;4.32;;;1.10;;
49147;SDS011;41980;45.550;12.070;2022-07-15T13:22:35;2.65;;;1.30;;
49147;SDS011;41980;45.550;12.070;2022-07-15T13:28:37;1.67;;;0.90;;
49147;SDS011;41980;45.550;12.070;2022-07-15T13:34:39;3.47;;;1.00;;
49147;SDS011;41980;45.550;12.070;2022-07-15T13:40:41;2.15;;;1.00;;
49147;SDS011;41980;45.550;12.070;2022-07-15T13:46:43;1.80;;;1.02;;
49147;SDS011;41980;45.550;12.070;2022-07-15T13:52:47;1.50;;;0.95;;
49147;SDS011;41980;45.550;12.070;2022-07-15T13:58:51;3.63;;;1.40;;
49147;SDS011;41980;45.550;12.070;2022-07-15T14:04:53;3.72;;;1.25;;
49147;SDS011;41980;45.550;12.070;2022-07-15T14:10:55;3.00;;;1.00;;
49147;SDS011;41980;45.550;12.070;2022-07-15T14:16:57;2.63;;;1.00;;
49147;SDS011;41980;45.550;12.070;2022-07-15T14:22:59;2.13;;;1.00;;
49147;SDS011;41980;45.550;12.070;2022-07-15T14:29:02;2.05;;;1.10;;
49147;SDS011;41980;45.550;12.070;2022-07-15T14:35:04;2.83;;;1.05;;
49147;SDS011;41980;45.550;12.070;2022-07-15T14:41:07;2.17;;;1.20;;
49147;SDS011;41980;45.550;12.070;2022-07-15T14:47:09;2.13;;;1.20;;
49147;SDS011;41980;45.550;12.070;2022-07-15T14:53:12;2.08;;;1.10;;
49147;SDS011;41980;45.550;12.070;2022-07-15T14:59:14;1.98;;;1.00;;
49147;SDS011;41980;45.550;12.070;2022-07-15T15:05:16;2.70;;;1.00;;
49147;SDS011;41980;45.550;12.070;2022-07-15T15:11:18;2.03;;;1.00;;
49147;SDS011;41980;45.550;12.070;2022-07-15T15:17:20;3.10;;;1.02;;
49147;SDS011;41980;45.550;12.070;2022-07-15T15:23:22;2.10;;;0.90;;
49147;SDS011;41980;45.550;12.070;2022-07-15T15:29:24;2.20;;;0.90;;
49147;SDS011;41980;45.550;12.070;2022-07-15T15:35:27;2.58;;;1.20;;
49147;SDS011;41980;45.550;12.070;2022-07-15T15:41:29;3.67;;;1.40;;
49147;SDS011;41980;45.550;12.070;2022-07-15T15:47:31;3.97;;;1.50;;
49147;SDS011;41980;45.550;12.070;2022-07-15T15:53:33;4.43;;;1.35;;
49147;SDS011;41980;45.550;12.070;2022-07-15T15:59:35;2.70;;;1.00;;
49147;SDS011;41980;45.550;12.070;2022-07-15T16:05:38;1.92;;;1.08;;
49147;SDS011;41980;45.550;12.070;2022-07-15T16:11:39;2.80;;;0.98;;
49147;SDS011;41980;45.550;12.070;2022-07-15T16:17:41;3.00;;;1.40;;
49147;SDS011;41980;45.550;12.070;2022-07-15T16:23:43;3.38;;;1.02;;
49147;SDS011;41980;45.550;12.070;2022-07-15T16:29:45;1.83;;;0.90;;
49147;SDS011;41980;45.550;12.070;2022-07-15T16:35:47;1.90;;;1.10;;
49147;SDS011;41980;45.550;12.070;2022-07-15T16:41:50;4.00;;;2.00;;
49147;SDS011;41980;45.550;12.070;2022-07-15T16:47:52;2.38;;;1.00;;
49147;SDS011;41980;45.550;12.070;2022-07-15T16:53:54;2.67;;;1.20;;
49147;SDS011;41980;45.550;12.070;2022-07-15T16:59:56;2.10;;;1.13;;
49147;SDS011;41980;45.550;12.070;2022-07-15T17:05:58;5.03;;;1.08;;
49147;SDS011;41980;45.550;12.070;2022-07-15T17:12:04;2.47;;;1.35;;
49147;SDS011;41980;45.550;12.070;2022-07-15T17:18:07;3.95;;;1.20;;
49147;SDS011;41980;45.550;12.070;2022-07-15T17:24:10;2.53;;;1.50;;
49147;SDS011;41980;45.550;12.070;2022-07-15T17:30:12;2.05;;;1.23;;
49147;SDS011;41980;45.550;12.070;2022-07-15T17:36:16;2.55;;;1.10;;
49147;SDS011;41980;45.550;12.070;2022-07-15T17:42:18;2.00;;;1.00;;
49147;SDS011;41980;45.550;12.070;2022-07-15T17:48:19;2.75;;;0.95;;
49147;SDS011;41980;45.550;12.070;2022-07-15T17:54:22;2.50;;;1.00;;
49147;SDS011;41980;45.550;12.070;2022-07-15T18:00:24;1.55;;;0.85;;
49147;SDS011;41980;45.550;12.070;2022-07-15T18:06:26;3.25;;;0.90;;
49147;SDS011;41980;45.550;12.070;2022-07-15T18:12:28;1.50;;;0.80;;
49147;SDS011;41980;45.550;12.070;2022-07-15T18:18:30;1.33;;;0.65;;
49147;SDS011;41980;45.550;12.070;2022-07-15T18:24:31;3.47;;;0.90;;
49147;SDS011;41980;45.550;12.070;2022-07-15T18:30:35;2.33;;;0.68;;
49147;SDS011;41980;45.550;12.070;2022-07-15T18:36:37;3.05;;;0.77;;
49147;SDS011;41980;45.550;12.070;2022-07-15T18:42:39;1.20;;;0.60;;
49147;SDS011;41980;45.550;12.070;2022-07-15T18:48:41;2.45;;;0.70;;
49147;SDS011;41980;45.550;12.070;2022-07-15T18:54:43;2.08;;;0.80;;
49147;SDS011;41980;45.550;12.070;2022-07-15T19:00:45;1.10;;;0.60;;
49147;SDS011;41980;45.550;12.070;2022-07-15T19:06:47;4.00;;;1.10;;
49147;SDS011;41980;45.550;12.070;2022-07-15T19:12:49;1.13;;;0.50;;
49147;SDS011;41980;45.550;12.070;2022-07-15T19:18:51;1.63;;;0.80;;
49147;SDS011;41980;45.550;12.070;2022-07-15T19:24:53;3.45;;;0.80;;
49147;SDS011;41980;45.550;12.070;2022-07-15T19:30:55;3.45;;;0.98;;
49147;SDS011;41980;45.550;12.070;2022-07-15T19:36:57;1.30;;;0.70;;
49147;SDS011;41980;45.550;12.070;2022-07-15T19:42:59;4.68;;;0.98;;
49147;SDS011;41980;45.550;12.070;2022-07-15T19:49:01;2.70;;;0.80;;
49147;SDS011;41980;45.550;12.070;2022-07-15T19:55:03;1.60;;;0.57;;
49147;SDS011;41980;45.550;12.070;2022-07-15T20:01:06;3.13;;;1.17;;
49147;SDS011;41980;45.550;12.070;2022-07-15T20:07:08;1.63;;;0.90;;
49147;SDS011;41980;45.550;12.070;2022-07-15T20:13:10;1.83;;;1.00;;
49147;SDS011;41980;45.550;12.070;2022-07-15T20:19:13;1.98;;;0.85;;
49147;SDS011;41980;45.550;12.070;2022-07-15T20:25:16;1.73;;;0.90;;
49147;SDS011;41980;45.550;12.070;2022-07-15T20:31:20;2.40;;;0.77;;
49147;SDS011;41980;45.550;12.070;2022-07-15T20:37:23;1.55;;;0.75;;
49147;SDS011;41980;45.550;12.070;2022-07-15T20:43:25;2.58;;;1.00;;
49147;SDS011;41980;45.550;12.070;2022-07-15T20:49:27;2.88;;;1.00;;
49147;SDS011;41980;45.550;12.070;2022-07-15T20:55:29;2.78;;;0.90;;
49147;SDS011;41980;45.550;12.070;2022-07-15T21:01:31;2.53;;;1.20;;
49147;SDS011;41980;45.550;12.070;2022-07-15T21:07:33;1.98;;;1.00;;
49147;SDS011;41980;45.550;12.070;2022-07-15T21:13:36;2.88;;;1.20;;
49147;SDS011;41980;45.550;12.070;2022-07-15T21:19:38;2.95;;;1.27;;
49147;SDS011;41980;45.550;12.070;2022-07-15T21:25:41;1.80;;;0.80;;
49147;SDS011;41980;45.550;12.070;2022-07-15T21:31:47;3.58;;;1.83;;
49147;SDS011;41980;45.550;12.070;2022-07-15T21:37:49;3.28;;;1.20;;
49147;SDS011;41980;45.550;12.070;2022-07-15T21:43:51;2.22;;;1.10;;
49147;SDS011;41980;45.550;12.070;2022-07-15T21:49:53;2.60;;;1.00;;
49147;SDS011;41980;45.550;12.070;2022-07-15T21:55:56;2.10;;;0.90;;
49147;SDS011;41980;45.550;12.070;2022-07-15T22:01:58;1.90;;;1.10;;
49147;SDS011;41980;45.550;12.070;2022-07-15T22:08:00;2.33;;;1.08;;
49147;SDS011;41980;45.550;12.070;2022-07-15T22:14:02;2.25;;;1.00;;
49147;SDS011;41980;45.550;12.070;2022-07-15T22:20:05;2.40;;;1.05;;
49147;SDS011;41980;45.550;12.070;2022-07-15T22:26:07;2.08;;;1.20;;
49147;SDS011;41980;45.550;12.070;2022-07-15T22:32:09;2.55;;;1.30;;
49147;SDS011;41980;45.550;12.070;2022-07-15T22:38:14;2.72;;;1.60;;
49147;SDS011;41980;45.550;12.070;2022-07-15T22:44:16;3.85;;;1.23;;
49147;SDS011;41980;45.550;12.070;2022-07-15T22:50:18;1.73;;;0.90;;
49147;SDS011;41980;45.550;12.070;2022-07-15T22:56:20;2.53;;;1.30;;
49147;SDS011;41980;45.550;12.070;2022-07-15T23:02:22;2.33;;;1.55;;
49147;SDS011;41980;45.550;12.070;2022-07-15T23:08:25;3.63;;;2.20;;
49147;SDS011;41980;45.550;12.070;2022-07-15T23:14:27;3.20;;;2.40;;
49147;SDS011;41980;45.550;12.070;2022-07-15T23:20:29;5.72;;;2.90;;
49147;SDS011;41980;45.550;12.070;2022-07-15T23:26:31;4.88;;;2.78;;
49147;SDS011;41980;45.550;12.070;2022-07-15T23:32:33;6.18;;;3.03;;
49147;SDS011;41980;45.550;12.070;2022-07-15T23:38:35;5.05;;;2.90;;
49147;SDS011;41980;45.550;12.070;2022-07-15T23:44:37;7.32;;;3.58;;
49147;SDS011;41980;45.550;12.070;2022-07-15T23:50:39;6.57;;;3.60;;
49147;SDS011;41980;45.550;12.070;2022-07-15T23:56:41;4.53;;;3.13;;
